Latest Weather Observations for Darwin Airport

IDD60801

Issued at 9:01 am CST Tuesday 17 October 2017 (issued every 30 minutes, with the page automatically refreshed every 10 minutes)

About weather observations | Map of weather stations | Latest weather observations for NT | Other Formats
Station Details ID: 014015 Name: DARWIN AIRPORT Lat: -12.42 Lon: 130.89 Height: 30.4 m
Data from the previous 72 hours. | See also: Recent months at Darwin Airport
Date/Time
CST
Temp
°C
App
Temp
°C
Dew
Point
°C
Rel
Hum
%
Delta-T
°C
Wind Press
QNH
hPa
Press
MSL
hPa
Rain since
9am
mm
Dir  Spd
km/h
Gust
km/h
Spd
kts
Gust
kts
17/08:30am 30.2 33.7 24.9 73 3.7 WNW 15 20 8 11 1009.0 1008.7 0.2
17/08:00am 30.4 34.7 24.9 72 3.9 W 11 17 6 9 1008.8 1008.5 0.2
17/07:30am 29.8 34.0 25.3 77 3.2 WSW 13 19 7 10 1008.1 1007.8 0.2
17/07:00am 29.1 33.7 25.4 80 2.6 W 11 17 6 9 1007.6 1007.3 0.2
17/06:30am 28.9 32.3 25.2 80 2.6 WNW 17 22 9 12 1007.1 1006.8 0.2
17/06:00am 28.7 32.7 25.1 81 2.5 WNW 13 19 7 10 1006.9 1006.6 0.2
17/05:30am 28.7 32.7 25.1 81 2.5 WNW 13 19 7 10 1006.8 1006.5 0.2
17/05:00am 28.9 32.4 24.9 79 2.8 WNW 15 19 8 10 1006.4 1006.1 0.2
17/04:30am 28.9 32.1 24.9 79 2.8 WNW 17 20 9 11 1006.1 1005.8 0.2
17/04:00am 29.0 32.2 25.0 79 2.8 WNW 17 19 9 10 1006.1 1005.8 0.2
17/03:30am 29.0 32.8 25.3 80 2.6 WNW 15 20 8 11 1006.1 1005.8 0.2
17/03:00am 29.1 31.9 25.3 80 2.7 WNW 20 26 11 14 1006.0 1005.7 0.2
17/02:30am 29.2 32.6 25.2 79 2.8 WNW 17 22 9 12 1006.1 1005.8 0.2
17/02:00am 29.1 32.1 25.3 80 2.7 WNW 19 28 10 15 1006.0 1005.7 0.2
17/01:30am 29.2 32.1 25.4 80 2.7 WNW 20 28 11 15 1006.1 1005.8 0.2
17/01:00am 29.3 31.8 25.3 79 2.8 WNW 22 28 12 15 1006.3 1006.0 0.2
17/12:30am 29.4 32.3 25.4 79 2.8 WNW 20 26 11 14 1006.5 1006.2 0.2
17/12:00am 29.4 32.4 25.6 80 2.7 WNW 20 24 11 13 1006.6 1006.3 0.2
 
Date/Time
CST
Temp
°C
App
Temp
°C
Dew
Point
°C
Rel
Hum
%
Delta-T
°C
Wind Press
QNH
hPa
Press
MSL
hPa
Rain since
9am
mm
Dir  Spd
km/h
Gust
km/h
Spd
kts
Gust
kts
16/11:30pm 29.4 32.1 25.0 77 3.1 WNW 20 28 11 15 1006.6 1006.3 0.2
16/11:00pm 29.5 32.9 25.3 78 3.0 WNW 17 24 9 13 1006.9 1006.6 0.2
16/10:30pm 29.5 32.3 25.3 78 3.0 WNW 20 28 11 15 1007.0 1006.7 0.2
16/10:00pm 29.5 32.4 25.1 77 3.1 W 19 26 10 14 1006.9 1006.6 0.2
16/09:30pm 29.5 32.8 25.1 77 3.1 W 17 24 9 13 1006.6 1006.3 0.2
16/09:00pm 29.5 32.8 25.1 77 3.1 W 17 24 9 13 1006.2 1005.9 0.2
16/08:30pm 29.7 32.9 24.9 75 3.4 W 17 22 9 12 1006.1 1005.8 0.2
16/08:00pm 30.1 33.2 24.8 73 3.7 WSW 17 22 9 12 1006.5 1006.2 0.2
16/07:30pm 30.0 33.2 24.9 74 3.6 W 17 22 9 12 1006.4 1006.1 0.2
16/07:00pm 30.1 32.6 24.8 73 3.7 WNW 20 26 11 14 1005.8 1005.5 0.2
16/06:30pm 30.7 33.0 24.4 69 4.4 WNW 20 26 11 14 1005.1 1004.8 0.2
16/06:00pm 31.1 33.1 23.9 65 5.0 NW 20 24 11 13 1005.0 1004.7 0.2
16/05:30pm 32.1 34.0 23.8 61 5.8 WNW 20 24 11 13 1004.9 1004.6 0.2
16/05:00pm 32.2 33.1 23.3 59 6.2 WNW 24 30 13 16 1004.9 1004.6 0.2
16/04:30pm 33.6 33.0 21.9 50 8.0 WNW 28 33 15 18 1004.6 1004.3 0.2
16/04:00pm 32.6 32.5 22.9 56 6.7 WNW 28 35 15 19 1004.3 1004.0 0.2
16/03:30pm 33.0 32.3 22.5 54 7.2 WNW 30 37 16 20 1004.3 1004.0 0.2
16/03:00pm 33.3 32.8 22.9 54 7.2 NW 30 37 16 20 1004.6 1004.3 0.2
16/02:30pm 33.0 33.7 22.9 55 7.0 WNW 24 32 13 17 1005.1 1004.8 0.2
16/02:00pm 33.3 35.0 24.0 58 6.5 NNW 22 28 12 15 1005.6 1005.3 0.2
16/01:30pm 33.0 35.2 24.0 59 6.3 NW 19 26 10 14 1005.9 1005.6 0.2
16/01:00pm 32.9 35.9 25.3 64 5.4 NW 19 24 10 13 1006.4 1006.1 0.2
16/12:30pm 32.5 35.5 24.7 63 5.5 NW 17 20 9 11 1006.8 1006.5 0.2
16/12:00pm 31.7 35.8 25.2 68 4.6 WNW 13 22 7 12 1007.3 1007.0 0.2
16/11:30am 31.9 36.1 24.7 65 5.1 WNW 11 17 6 9 1007.9 1007.6 0.2
16/11:00am 31.2 35.6 24.5 67 4.7 WNW 9 17 5 9 1008.3 1008.0 0.2
16/10:30am 30.8 34.9 24.5 69 4.4 WNW 11 17 6 9 1008.7 1008.4 0.2
16/10:00am 31.3 35.7 24.5 67 4.8 WNW 9 17 5 9 1008.8 1008.5 0.2
16/09:30am 30.6 35.1 24.6 70 4.2 WSW 9 17 5 9 1009.1 1008.8 0.2
16/09:00am 29.6 34.8 24.8 75 3.4 W 6 11 3 6 1009.2 1008.9 17.8
16/08:30am 28.1 33.4 24.4 80 2.6 W 4 6 2 3 1009.2 1008.9 17.8
16/08:00am 25.9 31.2 24.3 91 1.1 WNW 4 6 2 3 1009.1 1008.8 17.8
16/07:30am 25.1 28.2 22.9 87 1.5 W 11 15 6 8 1008.8 1008.5 17.8
16/07:00am 23.7 28.0 22.7 94 0.7 N 4 11 2 6 1009.0 1008.7 17.8
16/06:30am 23.1 27.5 22.8 98 0.2 ENE 4 6 2 3 1008.9 1008.6 17.8
16/06:00am 22.5 26.0 22.2 98 0.2 NNE 7 9 4 5 1008.6 1008.3 17.8
16/05:30am 22.9 24.7 22.5 98 0.3 NNE 17 20 9 11 1008.8 1008.5 17.4
16/05:00am 22.8 23.9 22.4 98 0.3 ENE 20 28 11 15 1008.1 1007.8 17.4
16/04:52am 23.5 24.4 22.0 91 1.0 ESE 20 26 11 14 1008.5 1008.2 16.8
16/04:39am 24.6 27.2 23.3 92 0.9 S 15 33 8 18 1008.1 1007.8 10.0
16/04:35am 26.6 30.9 25.5 94 0.8 S 13 33 7 18 1008.0 1007.7 3.8
16/04:30am 28.2 33.2 25.4 85 2.0 S 9 13 5 7 1007.6 1007.3 0.0
16/04:00am 28.2 32.2 25.1 83 2.2 SW 13 17 7 9 1007.7 1007.4 0.0
16/03:30am 28.4 31.7 25.1 82 2.3 W 17 22 9 12 1007.1 1006.8 0.0
16/03:00am 28.2 31.1 24.5 80 2.6 W 17 26 9 14 1006.7 1006.4 0.0
16/02:30am 27.6 32.2 24.7 84 2.0 W 9 11 5 6 1007.1 1006.8 0.0
16/02:00am 27.4 30.6 24.4 84 2.1 W 15 19 8 10 1007.1 1006.8 0.0
16/01:30am 27.4 30.3 23.9 81 2.4 WNW 15 19 8 10 1007.3 1007.0 0.0
16/01:00am 27.2 30.3 23.6 81 2.5 NW 13 20 7 11 1007.8 1007.5 0.0
16/12:30am 26.5 29.6 21.4 73 3.4 WNW 7 11 4 6 1008.0 1007.7 0.0
16/12:00am 26.0 28.5 20.2 70 3.8 NW 7 11 4 6 1008.6 1008.3 0.0
 
Date/Time
CST
Temp
°C
App
Temp
°C
Dew
Point
°C
Rel
Hum
%
Delta-T
°C
Wind Press
QNH
hPa
Press
MSL
hPa
Rain since
9am
mm
Dir  Spd
km/h
Gust
km/h
Spd
kts
Gust
kts
15/11:30pm 25.4 28.0 20.5 74 3.2 NNE 7 9 4 5 1008.4 1008.1 0.0
15/11:00pm 25.5 26.9 20.3 73 3.4 NE 13 20 7 11 1009.0 1008.7 0.0
15/10:30pm 26.2 25.8 20.9 72 3.5 E 24 32 13 17 1009.6 1009.3 0.0
15/10:11pm 27.3 28.3 20.3 65 4.6 E 15 39 8 21 1009.6 1009.3 0.0
15/10:00pm 29.3 35.0 24.4 75 3.4 SW 2 4 1 2 1009.5 1009.2 0.0
15/09:30pm 29.3 33.6 24.3 74 3.5 WNW 9 13 5 7 1008.5 1008.2 0.0
15/09:00pm 29.4 33.6 24.1 73 3.7 WNW 9 13 5 7 1008.3 1008.0 0.0
15/08:30pm 29.5 32.4 23.9 72 3.9 WNW 15 20 8 11 1007.7 1007.4 0.0
15/08:00pm 29.6 32.8 24.3 73 3.7 WNW 15 19 8 10 1006.9 1006.6 0.0
15/07:30pm 29.8 32.5 24.2 72 3.9 WNW 17 19 9 10 1006.5 1006.2 0.0
15/07:00pm 30.1 32.7 23.9 69 4.3 WNW 17 20 9 11 1005.6 1005.3 0.0
15/06:30pm 30.4 32.8 23.0 64 5.1 WNW 15 20 8 11 1005.2 1004.9 0.0
15/06:00pm 30.8 32.7 22.8 62 5.5 WNW 17 20 9 11 1005.2 1004.9 0.0
15/05:30pm 31.4 33.3 22.8 60 5.9 NW 17 22 9 12 1005.2 1004.9 0.0
15/05:00pm 31.4 33.3 22.8 60 5.9 NW 17 20 9 11 1005.0 1004.7 0.0
15/04:30pm 31.5 33.5 22.9 60 5.9 NW 17 20 9 11 1005.1 1004.8 0.0
15/04:00pm 31.9 34.3 22.9 59 6.2 WNW 15 22 8 12 1005.4 1005.1 0.0
15/03:30pm 32.4 34.3 22.7 56 6.7 NW 17 20 9 11 1005.4 1005.1 0.0
15/03:00pm 32.4 34.3 22.8 57 6.6 WNW 17 20 9 11 1005.7 1005.4 0.0
15/02:30pm 32.7 35.3 22.7 55 6.9 NW 13 19 7 10 1005.9 1005.6 0.0
15/02:00pm 32.3 35.8 22.9 57 6.5 W 9 15 5 8 1006.2 1005.9 0.0
15/01:30pm 31.7 35.2 22.8 59 6.1 NW 9 17 5 9 1006.6 1006.3 0.0
15/01:00pm 31.7 34.6 23.2 60 5.9 WNW 13 19 7 10 1007.1 1006.8 0.0
15/12:30pm 31.7 34.5 23.0 60 6.0 WNW 13 19 7 10 1007.5 1007.2 0.0
15/12:00pm 31.8 35.8 23.8 62 5.6 W 9 15 5 8 1008.0 1007.7 0.0
15/11:30am 30.5 34.8 23.7 67 4.7 WSW 7 15 4 8 1008.3 1008.0 0.0
15/11:00am 31.5 35.5 23.7 63 5.4 WNW 9 17 5 9 1008.7 1008.4 0.0
15/10:30am 31.6 36.6 23.8 63 5.4 SW 4 9 2 5 1009.0 1008.7 0.0
15/10:00am 30.3 35.3 23.8 68 4.5 SSW 4 7 2 4 1009.2 1008.9 0.0
15/09:30am 29.6 34.7 24.0 72 3.9 WSW 4 7 2 4 1009.0 1008.7 0.0
15/09:00am 28.6 33.4 24.1 76 3.1 NNW 6 7 3 4 1009.0 1008.7 0.4
15/08:30am 27.8 32.7 24.3 81 2.4 N 6 7 3 4 1008.6 1008.3 0.4
15/08:00am 27.0 32.1 24.1 84 2.0 SW 4 6 2 3 1008.4 1008.1 0.4
15/07:30am 26.3 31.8 24.0 87 1.6 SW 2 4 1 2 1008.3 1008.0 0.4
15/07:00am 25.8 30.9 24.1 90 1.2 SW 4 6 2 3 1007.8 1007.5 0.4
15/06:30am 25.6 30.8 23.6 89 1.4 SSW 2 4 1 2 1007.7 1007.4 0.4
15/06:00am 25.4 30.6 23.5 89 1.3 SSE 2 4 1 2 1007.6 1007.3 0.4
15/05:30am 25.2 30.3 23.4 90 1.2 S 2 4 1 2 1007.3 1007.0 0.4
15/05:00am 24.9 30.0 23.4 91 1.0 SSE 2 6 1 3 1006.9 1006.6 0.4
15/04:30am 24.9 29.3 22.8 88 1.4 SW 4 4 2 2 1007.0 1006.7 0.4
15/04:00am 25.0 29.0 22.8 87 1.5 WSW 6 7 3 4 1007.3 1007.0 0.2
15/03:30am 25.4 28.4 22.0 81 2.3 SSW 9 13 5 7 1007.5 1007.2 0.0
15/03:00am 25.3 27.4 21.7 80 2.4 SSW 13 19 7 10 1007.5 1007.2 0.0
15/02:30am 25.8 27.7 22.1 80 2.5 SSW 15 20 8 11 1007.5 1007.2 0.0
15/02:00am 28.8 34.4 23.6 73 3.6 CALM 0 7 0 4 1007.9 1007.6 0.0
15/01:30am 28.8 33.7 23.7 74 3.5 NNW 4 7 2 4 1007.8 1007.5 0.0
15/01:00am 28.7 33.4 23.9 75 3.3 NNW 6 9 3 5 1007.8 1007.5 0.0
15/12:30am 28.6 33.3 24.0 76 3.2 NNW 6 9 3 5 1008.0 1007.7 0.0
15/12:00am 28.7 33.1 24.4 77 3.0 N 9 13 5 7 1008.3 1008.0 0.0
 
Date/Time
CST
Temp
°C
App
Temp
°C
Dew
Point
°C
Rel
Hum
%
Delta-T
°C
Wind Press
QNH
hPa
Press
MSL
hPa
Rain since
9am
mm
Dir  Spd
km/h
Gust
km/h
Spd
kts
Gust
kts
14/11:30pm 28.9 32.8 24.3 76 3.2 NNW 11 15 6 8 1008.6 1008.3 0.0
14/11:00pm 28.9 31.6 24.2 76 3.3 NNW 17 22 9 12 1008.3 1008.0 0.0
14/10:30pm 29.1 31.9 25.0 78 2.9 NW 19 26 10 14 1008.2 1007.9 0.0
14/10:00pm 29.5 32.6 24.8 76 3.3 NW 17 22 9 12 1008.3 1008.0 0.0
14/09:30pm 29.8 32.5 24.7 74 3.6 NW 19 24 10 13 1007.9 1007.6 0.0
14/09:00pm 30.0 33.0 24.7 73 3.7 NW 17 20 9 11 1007.4 1007.1 0.0
14/08:30pm 30.4 33.9 23.5 66 4.8 NW 11 15 6 8 1007.1 1006.8 0.0
14/08:00pm 30.0 33.6 23.0 66 4.8 NW 9 11 5 6 1006.8 1006.5 0.0
14/07:30pm 30.6 33.9 22.6 62 5.5 WNW 9 13 5 7 1006.5 1006.2 0.0
14/07:00pm 30.7 34.8 23.2 64 5.2 NW 7 11 4 6 1006.0 1005.7 0.0
14/06:30pm 31.0 33.7 22.9 62 5.6 NW 13 17 7 9 1005.6 1005.3 0.0
14/06:00pm 31.4 33.7 22.7 60 6.0 NW 15 19 8 10 1005.3 1005.0 0.0
14/05:30pm 31.5 33.6 23.1 61 5.8 NW 17 22 9 12 1005.1 1004.8 0.0
14/05:00pm 31.4 33.8 24.3 66 5.0 NNW 19 26 10 14 1004.9 1004.6 0.0
14/04:30pm 32.4 34.3 23.8 60 6.0 NNW 20 28 11 15 1005.0 1004.7 0.0
14/04:00pm 32.7 34.7 24.0 60 6.1 NNW 20 28 11 15 1005.2 1004.9 0.0
14/03:30pm 32.9 35.1 23.9 59 6.3 NNW 19 26 10 14 1005.4 1005.1 0.0
14/03:00pm 32.9 34.8 23.7 58 6.4 NW 20 28 11 15 1005.5 1005.2 0.0
14/02:30pm 33.3 35.3 24.0 58 6.5 NW 20 28 11 15 1005.7 1005.4 0.0
14/02:00pm 33.3 35.9 24.0 58 6.5 NNW 17 22 9 12 1006.2 1005.9 0.0
14/01:30pm 33.3 35.7 23.7 57 6.7 NW 17 22 9 12 1006.7 1006.4 0.0
14/01:00pm 32.2 35.9 23.2 59 6.2 WNW 9 17 5 9 1007.5 1007.2 0.0
14/12:30pm 31.9 34.3 21.6 54 7.0 NNW 11 22 6 12 1008.1 1007.8 0.0
14/12:00pm 32.6 35.7 24.2 61 5.9 NW 15 22 8 12 1008.7 1008.4 0.0
14/11:30am 31.6 36.0 25.1 68 4.6 WNW 11 20 6 11 1009.3 1009.0 0.0
14/11:00am 30.7 35.2 25.2 72 3.9 NW 11 17 6 9 1009.6 1009.3 0.0
14/10:30am 31.0 35.6 24.7 69 4.4 WNW 9 15 5 8 1009.9 1009.6 0.0
14/10:00am 30.6 34.8 24.1 68 4.5 W 9 13 5 7 1009.9 1009.6 0.0
14/09:30am 31.1 35.7 24.7 68 4.5 WNW 9 15 5 8 1009.9 1009.6 0.0

Other Formats:

Comma delimited format used in spreadsheet applications
http://www.bom.gov.au/fwo/IDD60801/IDD60801.94120.axf

JavaScript Object Notation format (JSON) in row-major order
http://www.bom.gov.au/fwo/IDD60801/IDD60801.94120.json